sensor_id;sensor_type;location;lat;lon;timestamp;pressure;altitude;pressure_sealevel;temperature;humidity
50123;BME280;36021;48.670;6.184;2023-04-25T00:00:22;98520.41;;;10.48;100.00
50123;BME280;36021;48.670;6.184;2023-04-25T00:02:48;98515.59;;;10.67;100.00
50123;BME280;36021;48.670;6.184;2023-04-25T00:05:14;98512.63;;;10.77;100.00
50123;BME280;36021;48.670;6.184;2023-04-25T00:07:42;98511.03;;;10.76;100.00
50123;BME280;36021;48.670;6.184;2023-04-25T00:10:09;98512.25;;;10.70;100.00
50123;BME280;36021;48.670;6.184;2023-04-25T00:12:36;98507.75;;;10.74;100.00
50123;BME280;36021;48.670;6.184;2023-04-25T00:15:01;98500.41;;;10.83;100.00
50123;BME280;36021;48.670;6.184;2023-04-25T00:17:27;98503.47;;;10.68;100.00
50123;BME280;36021;48.670;6.184;2023-04-25T00:19:53;98504.91;;;10.65;100.00
50123;BME280;36021;48.670;6.184;2023-04-25T00:22:18;98510.44;;;10.52;100.00
50123;BME280;36021;48.670;6.184;2023-04-25T00:24:44;98505.94;;;10.56;100.00
50123;BME280;36021;48.670;6.184;2023-04-25T00:27:12;98508.78;;;10.51;100.00
50123;BME280;36021;48.670;6.184;2023-04-25T00:29:37;98510.00;;;10.31;100.00
50123;BME280;36021;48.670;6.184;2023-04-25T00:32:04;98502.06;;;10.16;100.00
50123;BME280;36021;48.670;6.184;2023-04-25T00:34:29;98503.91;;;10.34;100.00
50123;BME280;36021;48.670;6.184;2023-04-25T00:36:55;98498.69;;;10.32;100.00
50123;BME280;36021;48.670;6.184;2023-04-25T00:39:20;98492.28;;;10.23;100.00
50123;BME280;36021;48.670;6.184;2023-04-25T00:41:48;98496.50;;;10.02;100.00
50123;BME280;36021;48.670;6.184;2023-04-25T00:44:19;98495.94;;;10.19;100.00
50123;BME280;36021;48.670;6.184;2023-04-25T00:46:46;98491.88;;;10.16;100.00
50123;BME280;36021;48.670;6.184;2023-04-25T00:49:12;98494.41;;;10.26;100.00
50123;BME280;36021;48.670;6.184;2023-04-25T00:51:40;98495.53;;;10.39;100.00
50123;BME280;36021;48.670;6.184;2023-04-25T00:54:06;98497.75;;;10.51;100.00
50123;BME280;36021;48.670;6.184;2023-04-25T00:56:34;98492.88;;;10.48;100.00
50123;BME280;36021;48.670;6.184;2023-04-25T00:59:01;98490.84;;;10.53;100.00
50123;BME280;36021;48.670;6.184;2023-04-25T01:01:27;98486.75;;;10.51;100.00
50123;BME280;36021;48.670;6.184;2023-04-25T01:03:53;98486.53;;;10.61;100.00
50123;BME280;36021;48.670;6.184;2023-04-25T01:06:19;98475.72;;;10.51;100.00
50123;BME280;36021;48.670;6.184;2023-04-25T01:08:48;98475.31;;;10.57;100.00
50123;BME280;36021;48.670;6.184;2023-04-25T01:11:15;98472.66;;;10.66;100.00
50123;BME280;36021;48.670;6.184;2023-04-25T01:13:40;98475.00;;;10.59;100.00
50123;BME280;36021;48.670;6.184;2023-04-25T01:16:06;98472.47;;;10.49;100.00
50123;BME280;36021;48.670;6.184;2023-04-25T01:18:31;98475.94;;;10.54;100.00
50123;BME280;36021;48.670;6.184;2023-04-25T01:21:02;98469.78;;;10.57;100.00
50123;BME280;36021;48.670;6.184;2023-04-25T01:23:31;98459.59;;;10.58;100.00
50123;BME280;36021;48.670;6.184;2023-04-25T01:25:59;98456.97;;;10.53;100.00
50123;BME280;36021;48.670;6.184;2023-04-25T01:28:27;98454.09;;;10.58;100.00
50123;BME280;36021;48.670;6.184;2023-04-25T01:30:52;98465.56;;;10.24;100.00
50123;BME280;36021;48.670;6.184;2023-04-25T01:33:19;98467.53;;;10.05;100.00
50123;BME280;36021;48.670;6.184;2023-04-25T01:35:46;98464.00;;;10.18;100.00
50123;BME280;36021;48.670;6.184;2023-04-25T01:38:12;98462.66;;;10.02;100.00
50123;BME280;36021;48.670;6.184;2023-04-25T01:40:39;98460.09;;;10.05;100.00
50123;BME280;36021;48.670;6.184;2023-04-25T01:43:06;98456.72;;;10.08;100.00
50123;BME280;36021;48.670;6.184;2023-04-25T01:45:31;98454.09;;;10.03;100.00
50123;BME280;36021;48.670;6.184;2023-04-25T01:47:58;98457.53;;;9.95;100.00
50123;BME280;36021;48.670;6.184;2023-04-25T01:50:24;98455.94;;;9.94;100.00
50123;BME280;36021;48.670;6.184;2023-04-25T01:52:50;98455.50;;;9.87;100.00
50123;BME280;36021;48.670;6.184;2023-04-25T01:55:16;98453.06;;;9.85;100.00
50123;BME280;36021;48.670;6.184;2023-04-25T01:57:51;98454.16;;;9.71;100.00
50123;BME280;36021;48.670;6.184;2023-04-25T02:00:19;98459.53;;;9.62;100.00
50123;BME280;36021;48.670;6.184;2023-04-25T02:02:47;98451.88;;;9.59;100.00
50123;BME280;36021;48.670;6.184;2023-04-25T02:05:20;98452.53;;;9.70;100.00
50123;BME280;36021;48.670;6.184;2023-04-25T02:07:47;98456.31;;;9.74;100.00
50123;BME280;36021;48.670;6.184;2023-04-25T02:10:13;98452.78;;;9.41;100.00
50123;BME280;36021;48.670;6.184;2023-04-25T02:12:50;98459.81;;;9.15;100.00
50123;BME280;36021;48.670;6.184;2023-04-25T02:15:25;98470.19;;;9.18;100.00
50123;BME280;36021;48.670;6.184;2023-04-25T02:17:55;98464.78;;;8.94;100.00
50123;BME280;36021;48.670;6.184;2023-04-25T02:20:20;98468.44;;;9.08;100.00
50123;BME280;36021;48.670;6.184;2023-04-25T02:22:47;98479.66;;;8.93;100.00
50123;BME280;36021;48.670;6.184;2023-04-25T02:25:13;98480.97;;;8.77;100.00
50123;BME280;36021;48.670;6.184;2023-04-25T02:27:40;98483.28;;;8.70;100.00
50123;BME280;36021;48.670;6.184;2023-04-25T02:30:09;98487.00;;;8.79;100.00
50123;BME280;36021;48.670;6.184;2023-04-25T02:32:34;98487.59;;;8.76;100.00
50123;BME280;36021;48.670;6.184;2023-04-25T02:35:01;98495.25;;;8.60;100.00
50123;BME280;36021;48.670;6.184;2023-04-25T02:37:30;98493.50;;;8.64;100.00
50123;BME280;36021;48.670;6.184;2023-04-25T02:39:56;98487.78;;;8.61;100.00
50123;BME280;36021;48.670;6.184;2023-04-25T02:42:21;98494.47;;;8.55;100.00
50123;BME280;36021;48.670;6.184;2023-04-25T02:44:47;98489.91;;;8.69;100.00
50123;BME280;36021;48.670;6.184;2023-04-25T02:47:15;98497.44;;;8.58;100.00
50123;BME280;36021;48.670;6.184;2023-04-25T02:49:42;98494.06;;;8.66;100.00
50123;BME280;36021;48.670;6.184;2023-04-25T02:52:10;98487.78;;;8.61;100.00
50123;BME280;36021;48.670;6.184;2023-04-25T02:54:36;98494.44;;;8.36;100.00
50123;BME280;36021;48.670;6.184;2023-04-25T02:57:03;98497.41;;;8.40;100.00
50123;BME280;36021;48.670;6.184;2023-04-25T02:59:34;98490.09;;;8.54;100.00
50123;BME280;36021;48.670;6.184;2023-04-25T03:01:59;98492.13;;;8.67;100.00
50123;BME280;36021;48.670;6.184;2023-04-25T03:04:25;98494.00;;;8.48;100.00
50123;BME280;36021;48.670;6.184;2023-04-25T03:06:51;98493.22;;;8.47;100.00
50123;BME280;36021;48.670;6.184;2023-04-25T03:09:21;98485.03;;;8.61;100.00
50123;BME280;36021;48.670;6.184;2023-04-25T03:11:48;98486.81;;;8.52;100.00
50123;BME280;36021;48.670;6.184;2023-04-25T03:14:16;98485.34;;;8.41;100.00
50123;BME280;36021;48.670;6.184;2023-04-25T03:16:43;98478.66;;;8.47;100.00
50123;BME280;36021;48.670;6.184;2023-04-25T03:19:08;98476.28;;;8.40;100.00
50123;BME280;36021;48.670;6.184;2023-04-25T03:21:34;98471.16;;;8.52;100.00
50123;BME280;36021;48.670;6.184;2023-04-25T03:24:01;98455.94;;;8.41;100.00
50123;BME280;36021;48.670;6.184;2023-04-25T03:26:27;98443.69;;;8.33;100.00
50123;BME280;36021;48.670;6.184;2023-04-25T03:28:53;98449.88;;;8.44;100.00
50123;BME280;36021;48.670;6.184;2023-04-25T03:31:20;98450.22;;;8.38;100.00
50123;BME280;36021;48.670;6.184;2023-04-25T03:33:47;98434.91;;;8.31;100.00
50123;BME280;36021;48.670;6.184;2023-04-25T03:36:12;98424.38;;;8.38;100.00
50123;BME280;36021;48.670;6.184;2023-04-25T03:38:38;98421.72;;;8.52;100.00
50123;BME280;36021;48.670;6.184;2023-04-25T03:41:06;98426.34;;;8.57;100.00
50123;BME280;36021;48.670;6.184;2023-04-25T03:43:54;98435.69;;;8.56;100.00
50123;BME280;36021;48.670;6.184;2023-04-25T03:46:20;98425.16;;;8.63;100.00
50123;BME280;36021;48.670;6.184;2023-04-25T03:48:47;98446.53;;;8.66;100.00
50123;BME280;36021;48.670;6.184;2023-04-25T03:51:18;98456.34;;;8.72;100.00
50123;BME280;36021;48.670;6.184;2023-04-25T03:53:44;98461.81;;;8.72;100.00
50123;BME280;36021;48.670;6.184;2023-04-25T03:56:18;98456.34;;;8.72;100.00
50123;BME280;36021;48.670;6.184;2023-04-25T03:58:49;98453.22;;;8.60;100.00
50123;BME280;36021;48.670;6.184;2023-04-25T04:01:20;98453.06;;;8.70;100.00
50123;BME280;36021;48.670;6.184;2023-04-25T04:03:46;98463.66;;;8.58;100.00
50123;BME280;36021;48.670;6.184;2023-04-25T04:06:14;98466.53;;;8.48;100.00
50123;BME280;36021;48.670;6.184;2023-04-25T04:08:46;98475.84;;;8.52;100.00
50123;BME280;36021;48.670;6.184;2023-04-25T04:11:14;98475.84;;;8.52;100.00
50123;BME280;36021;48.670;6.184;2023-04-25T04:13:40;98477.69;;;8.38;100.00
50123;BME280;36021;48.670;6.184;2023-04-25T04:16:07;98466.13;;;8.41;100.00
50123;BME280;36021;48.670;6.184;2023-04-25T04:18:32;98479.97;;;8.30;100.00
50123;BME280;36021;48.670;6.184;2023-04-25T04:20:59;98476.09;;;8.31;100.00
50123;BME280;36021;48.670;6.184;2023-04-25T04:23:26;98477.97;;;8.36;100.00
50123;BME280;36021;48.670;6.184;2023-04-25T04:25:56;98474.16;;;8.32;100.00
50123;BME280;36021;48.670;6.184;2023-04-25T04:28:40;98473.09;;;8.52;100.00
50123;BME280;36021;48.670;6.184;2023-04-25T04:31:22;98468.66;;;8.56;100.00
50123;BME280;36021;48.670;6.184;2023-04-25T04:33:49;98470.72;;;8.64;100.00
50123;BME280;36021;48.670;6.184;2023-04-25T04:36:15;98468.66;;;8.74;100.00
50123;BME280;36021;48.670;6.184;2023-04-25T04:38:41;98472.22;;;8.94;100.00
50123;BME280;36021;48.670;6.184;2023-04-25T04:41:11;98466.50;;;8.90;100.00
50123;BME280;36021;48.670;6.184;2023-04-25T04:43:48;98472.97;;;8.99;100.00
50123;BME280;36021;48.670;6.184;2023-04-25T04:46:42;98471.78;;;8.68;100.00
50123;BME280;36021;48.670;6.184;2023-04-25T04:49:16;98471.13;;;8.76;100.00
50123;BME280;36021;48.670;6.184;2023-04-25T04:52:08;98473.56;;;8.96;100.00
50123;BME280;36021;48.670;6.184;2023-04-25T04:54:52;98469.25;;;9.09;100.00
50123;BME280;36021;48.670;6.184;2023-04-25T04:57:31;98474.59;;;9.19;100.00
50123;BME280;36021;48.670;6.184;2023-04-25T05:00:16;98477.47;;;9.27;100.00
50123;BME280;36021;48.670;6.184;2023-04-25T05:03:08;98483.06;;;9.22;100.00
50123;BME280;36021;48.670;6.184;2023-04-25T05:06:09;98484.16;;;9.21;100.00
50123;BME280;36021;48.670;6.184;2023-04-25T05:08:46;98485.81;;;9.22;100.00
50123;BME280;36021;48.670;6.184;2023-04-25T05:11:23;98491.91;;;9.19;100.00
50123;BME280;36021;48.670;6.184;2023-04-25T05:14:12;98493.91;;;9.32;100.00
50123;BME280;36021;48.670;6.184;2023-04-25T05:16:37;98498.41;;;9.42;100.00
50123;BME280;36021;48.670;6.184;2023-04-25T05:19:18;98499.13;;;9.48;100.00
50123;BME280;36021;48.670;6.184;2023-04-25T05:22:00;98497.44;;;9.52;100.00
50123;BME280;36021;48.670;6.184;2023-04-25T05:24:46;98506.28;;;9.49;100.00
50123;BME280;36021;48.670;6.184;2023-04-25T05:27:31;98512.44;;;9.40;100.00
50123;BME280;36021;48.670;6.184;2023-04-25T05:30:15;98512.28;;;9.51;100.00
50123;BME280;36021;48.670;6.184;2023-04-25T05:33:05;98518.84;;;9.55;100.00
50123;BME280;36021;48.670;6.184;2023-04-25T05:35:32;98512.94;;;9.61;100.00
50123;BME280;36021;48.670;6.184;2023-04-25T05:37:57;98511.91;;;9.57;100.00
50123;BME280;36021;48.670;6.184;2023-04-25T05:40:36;98518.16;;;9.44;100.00
50123;BME280;36021;48.670;6.184;2023-04-25T05:43:12;98522.91;;;9.57;100.00
50123;BME280;36021;48.670;6.184;2023-04-25T05:46:00;98520.13;;;9.25;100.00
50123;BME280;36021;48.670;6.184;2023-04-25T05:48:29;98531.34;;;9.28;100.00
50123;BME280;36021;48.670;6.184;2023-04-25T05:51:18;98527.91;;;9.36;100.00
50123;BME280;36021;48.670;6.184;2023-04-25T05:54:02;98524.06;;;9.37;100.00
50123;BME280;36021;48.670;6.184;2023-04-25T05:56:27;98534.06;;;9.47;100.00
50123;BME280;36021;48.670;6.184;2023-04-25T05:58:54;98529.00;;;9.54;100.00
50123;BME280;36021;48.670;6.184;2023-04-25T06:01:21;98528.63;;;9.61;100.00
50123;BME280;36021;48.670;6.184;2023-04-25T06:03:47;98532.53;;;9.73;100.00
50123;BME280;36021;48.670;6.184;2023-04-25T06:06:13;98540.69;;;9.78;100.00
50123;BME280;36021;48.670;6.184;2023-04-25T06:08:40;98545.00;;;9.84;100.00
50123;BME280;36021;48.670;6.184;2023-04-25T06:11:06;98539.69;;;9.74;100.00
50123;BME280;36021;48.670;6.184;2023-04-25T06:13:31;98544.78;;;9.30;100.00
50123;BME280;36021;48.670;6.184;2023-04-25T06:15:57;98548.28;;;9.17;100.00
50123;BME280;36021;48.670;6.184;2023-04-25T06:18:22;98550.81;;;9.13;100.00
50123;BME280;36021;48.670;6.184;2023-04-25T06:20:48;98562.34;;;9.15;100.00
50123;BME280;36021;48.670;6.184;2023-04-25T06:23:16;98566.00;;;8.87;100.00
50123;BME280;36021;48.670;6.184;2023-04-25T06:25:52;98573.59;;;8.76;100.00
50123;BME280;36021;48.670;6.184;2023-04-25T06:28:17;98576.50;;;8.85;100.00
50123;BME280;36021;48.670;6.184;2023-04-25T06:30:45;98578.75;;;8.59;100.00
50123;BME280;36021;48.670;6.184;2023-04-25T06:33:15;98582.69;;;8.72;100.00
50123;BME280;36021;48.670;6.184;2023-04-25T06:35:41;98587.03;;;8.30;100.00
50123;BME280;36021;48.670;6.184;2023-04-25T06:38:09;98592.59;;;8.49;100.00
50123;BME280;36021;48.670;6.184;2023-04-25T06:40:37;98596.03;;;8.60;100.00
50123;BME280;36021;48.670;6.184;2023-04-25T06:43:04;98603.03;;;8.71;100.00
50123;BME280;36021;48.670;6.184;2023-04-25T06:46:05;98592.06;;;8.47;100.00
50123;BME280;36021;48.670;6.184;2023-04-25T06:48:34;98595.72;;;8.61;100.00
50123;BME280;36021;48.670;6.184;2023-04-25T06:51:00;98600.72;;;8.59;100.00
50123;BME280;36021;48.670;6.184;2023-04-25T06:53:26;98604.22;;;8.65;100.00
50123;BME280;36021;48.670;6.184;2023-04-25T06:55:57;98615.63;;;8.53;100.00
50123;BME280;36021;48.670;6.184;2023-04-25T06:58:29;98609.06;;;8.49;100.00
50123;BME280;36021;48.670;6.184;2023-04-25T07:01:04;98615.47;;;8.40;100.00
50123;BME280;36021;48.670;6.184;2023-04-25T07:03:30;98613.91;;;8.33;100.00
50123;BME280;36021;48.670;6.184;2023-04-25T07:05:59;98616.09;;;8.31;100.00
50123;BME280;36021;48.670;6.184;2023-04-25T07:08:26;98616.13;;;8.55;100.00
50123;BME280;36021;48.670;6.184;2023-04-25T07:10:54;98619.06;;;8.40;100.00
50123;BME280;36021;48.670;6.184;2023-04-25T07:13:20;98619.53;;;8.47;100.00
50123;BME280;36021;48.670;6.184;2023-04-25T07:15:46;98622.34;;;8.66;100.00
50123;BME280;36021;48.670;6.184;2023-04-25T07:18:13;98616.25;;;8.69;100.00
50123;BME280;36021;48.670;6.184;2023-04-25T07:20:39;98619.63;;;8.61;100.00
50123;BME280;36021;48.670;6.184;2023-04-25T07:23:05;98632.09;;;8.53;100.00
50123;BME280;36021;48.670;6.184;2023-04-25T07:25:32;98624.84;;;8.62;100.00
50123;BME280;36021;48.670;6.184;2023-04-25T07:27:58;98623.97;;;8.67;100.00
50123;BME280;36021;48.670;6.184;2023-04-25T07:30:25;98633.59;;;8.64;100.00
50123;BME280;36021;48.670;6.184;2023-04-25T07:32:51;98636.47;;;8.78;100.00
50123;BME280;36021;48.670;6.184;2023-04-25T07:35:17;98630.28;;;8.91;100.00
50123;BME280;36021;48.670;6.184;2023-04-25T07:37:42;98639.97;;;9.07;100.00
50123;BME280;36021;48.670;6.184;2023-04-25T07:40:12;98642.44;;;8.85;100.00
50123;BME280;36021;48.670;6.184;2023-04-25T07:42:43;98643.84;;;9.06;100.00
50123;BME280;36021;48.670;6.184;2023-04-25T07:45:10;98637.66;;;9.14;100.00
50123;BME280;36021;48.670;6.184;2023-04-25T07:47:38;98644.22;;;9.18;100.00
50123;BME280;36021;48.670;6.184;2023-04-25T07:50:04;98648.81;;;9.23;100.00
50123;BME280;36021;48.670;6.184;2023-04-25T07:52:30;98643.69;;;9.16;100.00
50123;BME280;36021;48.670;6.184;2023-04-25T07:55:04;98652.09;;;9.06;100.00
50123;BME280;36021;48.670;6.184;2023-04-25T07:57:40;98661.19;;;9.25;100.00
50123;BME280;36021;48.670;6.184;2023-04-25T08:00:06;98655.38;;;9.27;100.00
50123;BME280;36021;48.670;6.184;2023-04-25T08:02:40;98659.09;;;9.36;100.00
50123;BME280;36021;48.670;6.184;2023-04-25T08:05:10;98656.94;;;9.33;100.00
50123;BME280;36021;48.670;6.184;2023-04-25T08:07:41;98658.22;;;9.40;100.00
50123;BME280;36021;48.670;6.184;2023-04-25T08:10:09;98664.38;;;9.32;100.00
50123;BME280;36021;48.670;6.184;2023-04-25T08:12:36;98658.88;;;9.70;100.00
50123;BME280;36021;48.670;6.184;2023-04-25T08:15:02;98660.22;;;9.91;100.00
50123;BME280;36021;48.670;6.184;2023-04-25T08:17:32;98654.44;;;10.25;100.00
50123;BME280;36021;48.670;6.184;2023-04-25T08:19:58;98647.56;;;10.55;100.00
50123;BME280;36021;48.670;6.184;2023-04-25T08:22:29;98646.78;;;10.68;100.00
50123;BME280;36021;48.670;6.184;2023-04-25T08:25:15;98641.59;;;11.07;100.00
50123;BME280;36021;48.670;6.184;2023-04-25T08:27:42;98649.84;;;11.21;100.00
50123;BME280;36021;48.670;6.184;2023-04-25T08:30:08;98651.56;;;11.30;100.00
50123;BME280;36021;48.670;6.184;2023-04-25T08:32:34;98650.66;;;11.21;100.00
50123;BME280;36021;48.670;6.184;2023-04-25T08:35:29;98654.59;;;11.42;100.00
50123;BME280;36021;48.670;6.184;2023-04-25T08:37:55;98654.94;;;11.27;100.00
50123;BME280;36021;48.670;6.184;2023-04-25T08:40:21;98658.03;;;10.85;100.00
50123;BME280;36021;48.670;6.184;2023-04-25T08:42:57;98661.09;;;10.70;100.00
50123;BME280;36021;48.670;6.184;2023-04-25T08:45:25;98662.00;;;10.79;100.00
50123;BME280;36021;48.670;6.184;2023-04-25T08:47:53;98664.72;;;10.52;100.00
50123;BME280;36021;48.670;6.184;2023-04-25T08:50:19;98666.28;;;10.71;100.00
50123;BME280;36021;48.670;6.184;2023-04-25T08:52:48;98668.66;;;11.05;100.00
50123;BME280;36021;48.670;6.184;2023-04-25T08:55:15;98687.34;;;11.08;100.00
50123;BME280;36021;48.670;6.184;2023-04-25T08:57:41;98683.69;;;11.62;100.00
50123;BME280;36021;48.670;6.184;2023-04-25T09:00:09;98690.06;;;11.76;100.00
50123;BME280;36021;48.670;6.184;2023-04-25T09:02:41;98681.09;;;11.30;100.00
50123;BME280;36021;48.670;6.184;2023-04-25T09:05:07;98684.16;;;10.87;100.00
50123;BME280;36021;48.670;6.184;2023-04-25T09:07:36;98694.66;;;10.72;100.00
50123;BME280;36021;48.670;6.184;2023-04-25T09:10:04;98697.25;;;10.82;100.00
50123;BME280;36021;48.670;6.184;2023-04-25T09:12:36;98702.56;;;10.46;100.00
50123;BME280;36021;48.670;6.184;2023-04-25T09:15:03;98706.56;;;10.54;100.00
50123;BME280;36021;48.670;6.184;2023-04-25T09:17:54;98705.97;;;10.57;100.00
50123;BME280;36021;48.670;6.184;2023-04-25T09:20:20;98705.97;;;10.70;100.00
50123;BME280;36021;48.670;6.184;2023-04-25T09:22:46;98702.56;;;11.06;100.00
50123;BME280;36021;48.670;6.184;2023-04-25T09:25:13;98702.75;;;11.50;100.00
50123;BME280;36021;48.670;6.184;2023-04-25T09:27:52;98700.47;;;11.52;100.00
50123;BME280;36021;48.670;6.184;2023-04-25T09:30:33;98705.91;;;11.71;100.00
50123;BME280;36021;48.670;6.184;2023-04-25T09:33:11;98705.78;;;11.76;100.00
50123;BME280;36021;48.670;6.184;2023-04-25T09:35:42;98716.38;;;11.96;100.00
50123;BME280;36021;48.670;6.184;2023-04-25T09:38:13;98717.84;;;11.66;100.00
50123;BME280;36021;48.670;6.184;2023-04-25T09:40:48;98707.63;;;11.67;100.00
50123;BME280;36021;48.670;6.184;2023-04-25T09:43:29;98710.88;;;11.69;100.00
50123;BME280;36021;48.670;6.184;2023-04-25T09:45:55;98711.47;;;11.93;100.00
50123;BME280;36021;48.670;6.184;2023-04-25T09:48:24;98708.63;;;12.20;100.00
50123;BME280;36021;48.670;6.184;2023-04-25T09:51:09;98712.13;;;12.34;100.00
50123;BME280;36021;48.670;6.184;2023-04-25T09:53:37;98702.09;;;12.16;100.00
50123;BME280;36021;48.670;6.184;2023-04-25T09:56:13;98711.88;;;12.44;100.00
50123;BME280;36021;48.670;6.184;2023-04-25T09:58:39;98713.84;;;12.66;100.00
50123;BME280;36021;48.670;6.184;2023-04-25T10:01:09;98719.00;;;12.90;100.00
50123;BME280;36021;48.670;6.184;2023-04-25T10:03:45;98699.97;;;13.19;100.00
50123;BME280;36021;48.670;6.184;2023-04-25T10:06:28;98716.28;;;13.29;100.00
50123;BME280;36021;48.670;6.184;2023-04-25T10:08:57;98706.72;;;13.44;100.00
50123;BME280;36021;48.670;6.184;2023-04-25T10:11:23;98708.97;;;13.02;100.00
50123;BME280;36021;48.670;6.184;2023-04-25T10:13:50;98732.13;;;12.31;100.00
50123;BME280;36021;48.670;6.184;2023-04-25T10:16:15;98736.03;;;12.52;100.00
50123;BME280;36021;48.670;6.184;2023-04-25T10:18:41;98740.66;;;12.43;100.00
50123;BME280;36021;48.670;6.184;2023-04-25T10:21:07;98747.19;;;12.25;100.00
50123;BME280;36021;48.670;6.184;2023-04-25T10:23:33;98742.31;;;12.09;100.00
50123;BME280;36021;48.670;6.184;2023-04-25T10:26:00;98743.31;;;11.63;100.00
50123;BME280;36021;48.670;6.184;2023-04-25T10:28:26;98740.56;;;11.49;100.00
50123;BME280;36021;48.670;6.184;2023-04-25T10:31:04;98743.84;;;11.38;100.00
50123;BME280;36021;48.670;6.184;2023-04-25T10:33:33;98726.88;;;11.17;100.00
50123;BME280;36021;48.670;6.184;2023-04-25T10:38:35;98736.72;;;12.00;100.00
50123;BME280;36021;48.670;6.184;2023-04-25T10:41:02;98734.22;;;12.12;100.00
50123;BME280;36021;48.670;6.184;2023-04-25T10:45:56;98734.47;;;12.91;100.00
50123;BME280;36021;48.670;6.184;2023-04-25T10:48:28;98714.97;;;13.27;100.00
50123;BME280;36021;48.670;6.184;2023-04-25T10:51:10;98712.44;;;13.47;100.00
50123;BME280;36021;48.670;6.184;2023-04-25T10:53:35;98719.53;;;13.96;100.00
50123;BME280;36021;48.670;6.184;2023-04-25T10:56:09;98719.09;;;14.46;100.00
50123;BME280;36021;48.670;6.184;2023-04-25T10:58:34;98720.06;;;14.41;100.00
50123;BME280;36021;48.670;6.184;2023-04-25T11:01:01;98726.53;;;13.77;100.00
50123;BME280;36021;48.670;6.184;2023-04-25T11:03:26;98725.00;;;13.62;100.00
50123;BME280;36021;48.670;6.184;2023-04-25T11:05:52;98735.25;;;13.53;100.00
50123;BME280;36021;48.670;6.184;2023-04-25T11:08:19;98724.88;;;13.67;100.00
50123;BME280;36021;48.670;6.184;2023-04-25T11:10:50;98724.09;;;13.92;100.00
50123;BME280;36021;48.670;6.184;2023-04-25T11:13:16;98733.53;;;13.91;100.00
50123;BME280;36021;48.670;6.184;2023-04-25T11:15:45;98731.28;;;14.02;100.00
50123;BME280;36021;48.670;6.184;2023-04-25T11:18:15;98727.59;;;13.50;100.00
50123;BME280;36021;48.670;6.184;2023-04-25T11:20:41;98740.25;;;12.81;100.00
50123;BME280;36021;48.670;6.184;2023-04-25T11:23:09;98740.63;;;13.10;100.00
50123;BME280;36021;48.670;6.184;2023-04-25T11:25:36;98737.09;;;13.75;100.00
50123;BME280;36021;48.670;6.184;2023-04-25T11:28:02;98735.22;;;14.44;100.00
50123;BME280;36021;48.670;6.184;2023-04-25T11:30:28;98724.28;;;14.65;100.00
50123;BME280;36021;48.670;6.184;2023-04-25T11:32:56;98733.91;;;14.50;100.00
50123;BME280;36021;48.670;6.184;2023-04-25T11:35:21;98734.41;;;14.43;100.00
50123;BME280;36021;48.670;6.184;2023-04-25T11:37:50;98744.31;;;14.27;100.00
50123;BME280;36021;48.670;6.184;2023-04-25T11:40:16;98734.41;;;14.43;100.00
50123;BME280;36021;48.670;6.184;2023-04-25T11:42:43;98741.91;;;14.34;100.00
50123;BME280;36021;48.670;6.184;2023-04-25T11:45:10;98745.97;;;14.28;100.00
50123;BME280;36021;48.670;6.184;2023-04-25T11:47:37;98747.47;;;14.43;100.00
50123;BME280;36021;48.670;6.184;2023-04-25T11:50:03;98742.72;;;14.60;100.00
50123;BME280;36021;48.670;6.184;2023-04-25T11:52:38;98737.69;;;14.45;100.00
50123;BME280;36021;48.670;6.184;2023-04-25T11:55:06;98744.03;;;14.37;100.00
50123;BME280;36021;48.670;6.184;2023-04-25T11:57:33;98742.22;;;14.24;100.00
50123;BME280;36021;48.670;6.184;2023-04-25T12:00:09;98744.47;;;14.14;100.00
50123;BME280;36021;48.670;6.184;2023-04-25T12:02:41;98743.97;;;13.77;100.00
50123;BME280;36021;48.670;6.184;2023-04-25T12:05:10;98759.16;;;13.40;100.00
50123;BME280;36021;48.670;6.184;2023-04-25T12:07:36;98751.94;;;13.31;100.00
50123;BME280;36021;48.670;6.184;2023-04-25T12:10:10;98756.75;;;13.17;100.00
50123;BME280;36021;48.670;6.184;2023-04-25T12:12:36;98758.06;;;13.19;100.00
50123;BME280;36021;48.670;6.184;2023-04-25T12:15:09;98763.31;;;13.69;100.00
50123;BME280;36021;48.670;6.184;2023-04-25T12:17:35;98758.50;;;14.17;100.00
50123;BME280;36021;48.670;6.184;2023-04-25T12:20:09;98758.56;;;14.34;100.00
50123;BME280;36021;48.670;6.184;2023-04-25T12:22:35;98764.91;;;14.26;100.00
50123;BME280;36021;48.670;6.184;2023-04-25T12:25:02;98770.25;;;14.14;100.00
50123;BME280;36021;48.670;6.184;2023-04-25T12:27:30;98761.72;;;13.85;100.00
50123;BME280;36021;48.670;6.184;2023-04-25T12:29:56;98774.09;;;13.79;100.00
50123;BME280;36021;48.670;6.184;2023-04-25T12:32:22;98776.50;;;13.63;100.00
50123;BME280;36021;48.670;6.184;2023-04-25T12:34:48;98781.25;;;13.32;100.00
50123;BME280;36021;48.670;6.184;2023-04-25T12:37:13;98780.19;;;13.41;100.00
50123;BME280;36021;48.670;6.184;2023-04-25T12:39:39;98787.56;;;13.24;100.00
50123;BME280;36021;48.670;6.184;2023-04-25T12:42:05;98782.69;;;13.29;100.00
50123;BME280;36021;48.670;6.184;2023-04-25T12:44:33;98782.81;;;14.12;100.00
50123;BME280;36021;48.670;6.184;2023-04-25T12:46:58;98776.47;;;15.90;100.00
50123;BME280;36021;48.670;6.184;2023-04-25T12:49:25;98777.59;;;16.59;100.00
50123;BME280;36021;48.670;6.184;2023-04-25T12:51:50;98777.44;;;15.85;100.00
50123;BME280;36021;48.670;6.184;2023-04-25T12:54:17;98771.94;;;15.77;100.00
50123;BME280;36021;48.670;6.184;2023-04-25T12:56:44;98784.88;;;15.26;100.00
50123;BME280;36021;48.670;6.184;2023-04-25T12:59:09;98796.34;;;14.99;100.00
50123;BME280;36021;48.670;6.184;2023-04-25T13:01:35;98805.72;;;14.51;100.00
50123;BME280;36021;48.670;6.184;2023-04-25T13:04:01;98831.16;;;12.74;100.00
50123;BME280;36021;48.670;6.184;2023-04-25T13:06:26;98839.63;;;12.77;100.00
50123;BME280;36021;48.670;6.184;2023-04-25T13:08:54;98839.00;;;12.22;100.00
50123;BME280;36021;48.670;6.184;2023-04-25T13:11:20;98843.91;;;12.25;100.00